Time;durP1;ratioP1;P1;durP2;ratioP2;P2;SDS_P1;SDS_P2;PMS_P1;PMS_P2;Temp;Humidity;BMP_temperature;BMP_pressure;BME280_temperature;BME280_humidity;BME280_pressure;Samples;Min_cycle;Max_cycle;Signal;HPM_P1;HPM_P2
2021/07/26 00:01:54;;;;;;;5.17;3.60;;;;;;;28.74;45.68;101117.17;128392;1084;64218;-85
2021/07/26 00:04:29;;;;;;;5.83;3.70;;;;;;;28.74;45.77;101117.17;128363;1084;64115;-84
2021/07/26 00:07:07;;;;;;;5.00;3.30;;;;;;;28.73;45.77;101113.61;128422;1084;64141;-85
2021/07/26 00:09:43;;;;;;;5.47;3.57;;;;;;;28.73;45.82;101108.18;128453;1084;64438;-84
2021/07/26 00:12:12;;;;;;;5.30;3.33;;;;;;;28.73;45.92;101113.61;128402;1083;64336;-84
2021/07/26 00:14:55;;;;;;;4.70;3.40;;;;;;;28.73;45.87;101113.61;128416;1084;64230;-85
2021/07/26 00:17:24;;;;;;;6.37;3.50;;;;;;;28.72;46.03;101109.18;128417;1084;64147;-84
2021/07/26 00:19:50;;;;;;;;;;;;;;;28.72;45.67;101117.33;128407;1084;64220;-86
2021/07/26 00:22:16;;;;;;;5.10;3.30;;;;;;;28.71;46.06;101112.89;128376;1084;64176;-84
2021/07/26 00:24:58;;;;;;;4.73;3.37;;;;;;;28.71;45.63;101104.75;128409;1084;63944;-84
2021/07/26 00:27:33;;;;;;;5.70;3.50;;;;;;;28.71;46.18;101098.47;128399;1084;64199;-85
2021/07/26 00:30:23;;;;;;;5.10;3.57;;;;;;;28.71;45.55;101096.59;128385;1084;64307;-85
2021/07/26 00:32:57;;;;;;;5.13;3.53;;;;;;;28.71;45.83;101087.61;128363;1087;64142;-85
2021/07/26 00:35:35;;;;;;;6.13;3.50;;;;;;;28.70;46.09;101086.73;128381;1085;64100;-85
2021/07/26 00:38:02;;;;;;;6.55;3.33;;;;;;;28.71;46.03;101093.04;128003;1087;64147;-84
2021/07/26 00:40:42;;;;;;;;;;;;;;;;;;;;;
2021/07/26 00:43:18;;;;;;;4.73;3.33;;;;;;;28.71;45.74;101084.89;128386;1085;64267;-85
2021/07/26 00:45:47;;;;;;;6.40;3.60;;;;;;;28.71;45.98;101083.02;128009;1087;63952;-84
2021/07/26 00:48:18;;;;;;;5.33;3.63;;;;;;;28.71;46.14;101084.89;128010;1087;64102;-84
2021/07/26 00:51:02;;;;;;;5.73;3.60;;;;;;;28.71;45.64;101090.33;128075;1087;64165;-85
2021/07/26 00:53:38;;;;;;;5.20;3.37;;;;;;;28.71;45.69;101093.88;128041;1087;64214;-84
2021/07/26 00:56:05;;;;;;;6.20;3.23;;;;;;;28.70;46.03;101086.73;128033;1087;64093;-86
2021/07/26 00:58:31;;;;;;;5.70;3.50;;;;;;;28.71;45.65;101093.04;127981;1087;64076;-85
2021/07/26 01:01:00;;;;;;;4.57;3.37;;;;;;;28.70;46.08;101094.04;128006;1086;64118;-85
2021/07/26 01:03:35;;;;;;;;;;;;;;;28.69;45.70;101087.73;128065;1087;64142;-85
2021/07/26 01:06:01;;;;;;;6.17;3.13;;;;;;;28.69;45.91;101086.89;128354;1085;64307;-85
2021/07/26 01:08:30;;;;;;;6.17;3.80;;;;;;;28.68;45.69;101086.05;127998;1086;64137;-85
2021/07/26 01:10:57;;;;;;;5.57;3.50;;;;;;;28.69;46.04;101085.02;128223;1084;64131;-85
2021/07/26 01:13:32;;;;;;;5.50;3.70;;;;;;;28.68;45.96;101093.33;128395;1082;64147;-85
2021/07/26 01:16:18;;;;;;;4.63;3.40;;;;;;;28.69;45.90;101093.17;128405;1083;64130;-84
2021/07/26 01:18:49;;;;;;;5.30;3.80;;;;;;;28.67;45.91;101092.48;128452;1084;64115;-85
2021/07/26 01:21:16;;;;;;;6.07;3.50;;;;;;;28.68;45.70;101101.47;128403;1084;64801;-84
2021/07/26 01:23:56;;;;;;;5.27;3.77;;;;;;;28.68;46.16;101091.48;128372;1084;64140;-84
2021/07/26 01:26:26;;;;;;;5.80;3.80;;;;;;;28.68;46.00;101098.76;128432;1082;64212;-84
2021/07/26 01:28:57;;;;;;;6.53;3.33;;;;;;;28.69;45.78;101095.04;128407;1084;64612;-85
2021/07/26 01:31:33;;;;;;;5.10;3.53;;;;;;;28.68;46.05;101096.04;128395;1083;64194;-85
2021/07/26 01:34:16;;;;;;;6.00;3.60;;;;;;;28.69;46.03;101097.75;128407;1084;63942;-85
2021/07/26 01:36:42;;;;;;;4.97;3.60;;;;;;;28.68;45.92;101099.63;128425;1082;64173;-85
2021/07/26 01:39:09;;;;;;;5.60;3.33;;;;;;;28.67;45.76;101100.63;128416;1084;64089;-85
2021/07/26 01:41:36;;;;;;;5.27;3.50;;;;;;;28.69;45.81;101103.19;128392;1082;64590;-84
2021/07/26 01:44:10;;;;;;;5.77;3.73;;;;;;;28.67;45.79;101092.48;128397;1084;64128;-85
2021/07/26 01:47:09;;;;;;;5.10;3.40;;;;;;;28.68;46.19;101093.33;128430;1083;64584;-85
2021/07/26 01:49:44;;;;;;;5.63;3.70;;;;;;;28.68;46.11;101096.04;128403;1084;64106;-85
2021/07/26 01:52:30;;;;;;;5.30;3.30;;;;;;;28.67;46.26;101094.36;128423;1083;64141;-85
2021/07/26 01:54:56;;;;;;;5.77;3.70;;;;;;;28.67;46.10;101097.08;128408;1084;64125;-84
2021/07/26 01:57:23;;;;;;;6.23;3.90;;;;;;;28.67;45.92;101103.34;128386;1084;64310;-86
2021/07/26 01:59:58;;;;;;;5.03;3.20;;;;;;;28.67;46.07;101107.94;128365;1084;64137;-85
2021/07/26 02:02:33;;;;;;;6.00;3.50;;;;;;;28.67;46.12;101099.79;128394;1084;64301;-85
2021/07/26 02:05:09;;;;;;;5.97;3.20;;;;;;;28.67;46.16;101094.36;128447;1082;64175;-85
2021/07/26 02:07:41;;;;;;;6.17;3.40;;;;;;;28.66;45.91;101090.77;128378;1084;64106;-85
2021/07/26 02:10:13;;;;;;;5.10;3.60;;;;;;;28.67;46.11;101095.20;128416;1084;64205;-85
2021/07/26 02:12:40;;;;;;;5.87;3.40;;;;;;;28.67;45.97;101097.08;128425;1082;64074;-85
2021/07/26 02:15:16;;;;;;;6.13;3.70;;;;;;;28.67;46.00;101091.64;128412;1084;63939;-84
2021/07/26 02:17:42;;;;;;;6.57;4.00;;;;;;;28.66;46.12;101088.05;128413;1083;64182;-84
2021/07/26 02:20:09;;;;;;;4.80;3.30;;;;;;;28.67;46.04;101080.77;128450;1083;64361;-85
2021/07/26 02:22:45;;;;;;;6.13;3.30;;;;;;;28.66;45.97;101073.63;128398;1082;64586;-85
2021/07/26 02:25:12;;;;;;;5.03;3.50;;;;;;;28.66;46.12;101079.06;128395;1084;64198;-85
2021/07/26 02:27:38;;;;;;;4.60;3.37;;;;;;;28.66;46.00;101093.48;128421;1084;64129;-84
2021/07/26 02:30:14;;;;;;;5.63;3.10;;;;;;;28.65;45.77;101093.64;128439;1084;64275;-84
2021/07/26 02:32:57;;;;;;;5.87;3.77;;;;;;;28.65;46.06;101086.33;128482;1084;64105;-85
2021/07/26 02:35:23;;;;;;;6.90;3.67;;;;;;;28.67;46.11;101091.64;128565;1084;64057;-84
2021/07/26 02:37:52;;;;;;;4.67;3.30;;;;;;;28.66;45.87;101095.36;128555;1084;64127;-85
2021/07/26 02:40:19;;;;;;;5.70;3.70;;;;;;;28.66;46.23;101089.92;128490;1082;64170;-85
2021/07/26 02:42:45;;;;;;;5.83;3.43;;;;;;;28.66;46.08;101093.48;128450;1084;64291;-85
2021/07/26 02:45:23;;;;;;;4.70;3.35;;;;;;;28.67;46.00;101097.08;128422;1084;64160;-85
2021/07/26 02:48:08;;;;;;;6.40;3.75;;;;;;;28.67;46.20;101094.36;128426;1084;64167;-84
2021/07/26 02:50:34;;;;;;;5.63;3.77;;;;;;;28.65;45.77;101097.20;128402;1084;64369;-85
2021/07/26 02:53:03;;;;;;;7.37;3.93;;;;;;;28.66;45.87;101103.50;128416;1084;64093;-85
2021/07/26 02:55:43;;;;;;;4.87;3.70;;;;;;;28.66;46.11;101104.34;128394;1084;64111;-84
2021/07/26 02:58:13;;;;;;;6.40;3.77;;;;;;;28.66;46.07;101112.49;128407;1084;64130;-84
2021/07/26 03:00:45;;;;;;;5.83;3.67;;;;;;;28.66;46.12;101111.66;128386;1084;64246;-84
2021/07/26 03:03:15;;;;;;;5.10;3.33;;;;;;;28.66;46.20;101115.21;128406;1084;64096;-85
2021/07/26 03:06:04;;;;;;;6.07;3.80;;;;;;;28.65;46.05;101118.92;128440;1084;64601;-84
2021/07/26 03:08:39;;;;;;;6.97;3.87;;;;;;;28.66;46.17;101122.52;128424;1084;64275;-84
2021/07/26 03:11:10;;;;;;;5.17;3.53;;;;;;;28.65;46.15;101123.52;128366;1082;64176;-84
2021/07/26 03:13:47;;;;;;;6.03;3.83;;;;;;;28.65;46.36;101123.52;128422;1084;65430;-83
2021/07/26 03:16:27;;;;;;;5.67;3.50;;;;;;;28.64;46.13;101128.11;128443;1084;64131;-85
2021/07/26 03:19:05;;;;;;;5.37;3.63;;;;;;;28.64;46.15;101128.11;128394;1084;64208;-85
2021/07/26 03:21:31;;;;;;;6.00;3.50;;;;;;;28.64;46.21;101127.20;128436;1084;64549;-85
2021/07/26 03:23:57;;;;;;;4.70;3.63;;;;;;;28.64;46.18;101130.83;128388;1084;64301;-85
2021/07/26 03:26:35;;;;;;;7.23;3.83;;;;;;;28.64;46.22;101135.34;128445;1082;64218;-85
2021/07/26 03:29:07;;;;;;;5.30;3.57;;;;;;;28.64;45.91;101136.25;128402;1084;63960;-84
2021/07/26 03:31:52;;;;;;;6.10;3.43;;;;;;;28.65;45.96;101145.25;128397;1084;64099;-85
2021/07/26 03:34:19;;;;;;;5.67;3.60;;;;;;;28.64;46.13;101143.50;128436;1084;64105;-84
2021/07/26 03:36:57;;;;;;;5.90;3.60;;;;;;;28.64;46.27;101135.34;128431;1084;64104;-85
2021/07/26 03:39:23;;;;;;;4.57;3.30;;;;;;;28.65;45.92;101145.25;128401;1084;64130;-84
2021/07/26 03:41:57;;;;;;;5.37;3.63;;;;;;;28.63;46.13;101139.94;128378;1083;64153;-85
2021/07/26 03:44:24;;;;;;;5.63;3.77;;;;;;;28.63;46.12;101145.38;128465;1084;64298;-84
2021/07/26 03:47:00;;;;;;;5.43;3.67;;;;;;;28.64;46.11;101148.93;128431;1082;64111;-85
2021/07/26 03:49:28;;;;;;;5.30;3.60;;;;;;;28.64;46.39;101154.36;128396;1083;64232;-86
2021/07/26 03:52:07;;;;;;;7.53;3.70;;;;;;;28.65;46.31;101156.11;128416;1083;64157;-84
2021/07/26 03:54:36;;;;;;;;;;;;;;;28.63;46.26;101150.80;128433;1084;65327;-84
2021/07/26 03:57:25;;;;;;;5.80;3.57;;;;;;;28.63;46.18;101149.93;128450;1084;64371;-84
2021/07/26 03:59:52;;;;;;;6.07;3.77;;;;;;;28.63;46.26;101160.80;128327;1086;64139;-85
2021/07/26 04:02:27;;;;;;;5.67;3.50;;;;;;;28.62;45.89;101162.66;128366;1087;64249;-87
2021/07/26 04:04:57;;;;;;;5.13;3.30;;;;;;;28.62;46.12;101157.23;128333;1086;64269;-85
2021/07/26 04:07:37;;;;;;;5.43;3.80;;;;;;;28.62;46.06;101164.54;128404;1087;64127;-85
2021/07/26 04:10:23;;;;;;;5.63;3.40;;;;;;;28.63;46.09;101168.94;128415;1087;64124;-85
2021/07/26 04:12:52;;;;;;;5.77;3.80;;;;;;;28.62;46.03;101162.66;128353;1086;64096;-85
2021/07/26 04:15:19;;;;;;;5.63;3.73;;;;;;;28.63;46.13;101169.81;128357;1087;64205;-85
2021/07/26 04:17:57;;;;;;;5.40;3.47;;;;;;;28.64;46.01;101165.23;128393;1085;64342;-84
2021/07/26 04:20:26;;;;;;;6.20;3.57;;;;;;;28.64;46.00;101162.51;128370;1085;64239;-84
2021/07/26 04:22:55;;;;;;;5.53;3.53;;;;;;;28.64;46.27;101157.98;128379;1086;64236;-84
2021/07/26 04:25:28;;;;;;;5.30;3.60;;;;;;;28.65;46.07;101161.55;128349;1087;64294;-84
2021/07/26 04:28:03;;;;;;;5.23;3.40;;;;;;;28.64;46.16;101174.28;128376;1086;64356;-86
2021/07/26 04:30:34;;;;;;;5.70;3.77;;;;;;;28.64;46.26;101185.14;128360;1087;64364;-84
2021/07/26 04:33:20;;;;;;;5.87;3.90;;;;;;;28.64;46.15;101187.86;128387;1085;64104;-85
2021/07/26 04:35:46;;;;;;;6.47;3.87;;;;;;;28.65;46.11;101188.70;128382;1087;64687;-85
2021/07/26 04:38:31;;;;;;;7.90;3.90;;;;;;;28.64;45.98;101200.54;128406;1084;64227;-84
2021/07/26 04:40:58;;;;;;;6.73;4.07;;;;;;;28.64;45.85;101203.25;128434;1084;63936;-85
2021/07/26 04:43:26;;;;;;;7.77;4.50;;;;;;;28.64;45.81;101205.97;128389;1084;64154;-85
2021/07/26 04:46:02;;;;;;;;;;;;;;;28.62;45.41;101202.56;128399;1084;64246;-84
2021/07/26 04:48:28;;;;;;;10.13;4.27;;;;;;;28.61;45.41;101196.26;128454;1082;64136;-87
2021/07/26 04:50:56;;;;;;;9.50;4.60;;;;;;;28.60;45.40;101202.72;128413;1084;64092;-83
2021/07/26 04:53:22;;;;;;;10.17;4.60;;;;;;;28.60;45.07;101203.56;128366;1084;64144;-84
2021/07/26 04:56:00;;;;;;;12.67;4.73;;;;;;;28.59;45.17;101209.99;128404;1084;64237;-84
2021/07/26 04:58:44;;;;;;;14.77;4.60;;;;;;;28.60;44.82;101208.16;128415;1083;64265;-85
2021/07/26 05:01:11;;;;;;;15.27;4.83;;;;;;;28.58;44.29;101200.13;128397;1084;64230;-85
2021/07/26 05:03:56;;;;;;;11.23;4.97;;;;;;;28.57;44.52;101203.88;128352;1084;64780;-84
2021/07/26 05:06:25;;;;;;;14.43;5.17;;;;;;;28.58;44.29;101202.00;128426;1084;64179;-83
2021/07/26 05:09:02;;;;;;;11.93;4.70;;;;;;;28.58;44.00;101215.58;128460;1084;64301;-84
2021/07/26 05:11:51;;;;;;;12.33;4.73;;;;;;;28.57;43.68;101214.73;128386;1082;64173;-84
2021/07/26 05:14:29;;;;;;;10.63;4.97;;;;;;;28.57;43.85;101208.43;128401;1082;64173;-85
2021/07/26 05:17:12;;;;;;;9.63;5.43;;;;;;;28.57;43.79;101217.45;128404;1087;64154;-84
2021/07/26 05:19:42;;;;;;;10.77;5.40;;;;;;;28.57;43.58;101211.14;128386;1087;63949;-84
2021/07/26 05:22:17;;;;;;;9.50;5.30;;;;;;;28.56;43.57;101213.02;128384;1087;64154;-84
2021/07/26 05:24:54;;;;;;;9.90;5.27;;;;;;;28.56;43.13;101214.86;128334;1086;64134;-84
2021/07/26 05:27:28;;;;;;;10.70;4.90;;;;;;;28.56;43.07;101223.88;128340;1087;64268;-84
2021/07/26 05:29:57;;;;;;;9.93;5.27;;;;;;;28.55;43.10;101219.45;128366;1087;64275;-85
2021/07/26 05:32:29;;;;;;;12.43;5.50;;;;;;;28.56;43.15;101221.17;128357;1087;64259;-85
2021/07/26 05:35:24;;;;;;;11.53;5.47;;;;;;;28.56;42.98;101213.02;128357;1087;64229;-83
2021/07/26 05:37:59;;;;;;;15.00;5.20;;;;;;;28.56;42.80;101218.45;127928;1087;64189;-84
2021/07/26 05:40:38;;;;;;;9.67;5.17;;;;;;;28.56;42.52;101214.86;127909;1087;64275;-84
2021/07/26 05:43:05;;;;;;;10.07;5.30;;;;;;;28.56;42.64;101220.30;127954;1085;64137;-85
2021/07/26 05:45:42;;;;;;;11.07;5.10;;;;;;;28.56;42.74;101218.45;127899;1087;64193;-84
2021/07/26 05:48:17;;;;;;;13.43;5.73;;;;;;;28.57;42.59;101219.30;127978;1087;64110;-84
2021/07/26 05:50:55;;;;;;;;;;;;;;;;;;;;;
2021/07/26 05:53:28;;;;;;;12.43;4.70;;;;;;;28.57;42.61;101225.60;128320;1087;64162;-84
2021/07/26 05:55:55;;;;;;;11.53;5.40;;;;;;;28.58;42.54;101227.28;127940;1087;64221;-84
2021/07/26 05:58:21;;;;;;;11.80;4.80;;;;;;;28.59;42.18;101225.45;127947;1085;64288;-85
2021/07/26 06:00:57;;;;;;;10.07;4.87;;;;;;;28.60;42.31;101224.45;127977;1087;64167;-84
2021/07/26 06:03:32;;;;;;;8.07;4.57;;;;;;;28.60;41.94;101227.16;127972;1087;64141;-85
2021/07/26 06:06:06;;;;;;;8.67;4.60;;;;;;;28.59;42.12;101229.00;128323;1087;64256;-84
2021/07/26 06:08:33;;;;;;;9.57;4.63;;;;;;;28.60;41.96;101228.01;127904;1087;64140;-82
2021/07/26 06:11:02;;;;;;;8.57;4.83;;;;;;;28.62;42.01;101229.73;127881;1087;64211;-83
2021/07/26 06:13:34;;;;;;;9.70;4.77;;;;;;;28.62;42.27;101230.56;128043;1086;63947;-83
2021/07/26 06:16:04;;;;;;;11.97;4.87;;;;;;;28.64;42.22;101233.13;128186;1084;64269;-84
2021/07/26 06:18:31;;;;;;;12.23;4.80;;;;;;;28.63;41.94;101235.00;128370;1082;64211;-83
2021/07/26 06:20:57;;;;;;;8.07;4.07;;;;;;;28.65;41.85;101234.88;128344;1082;64275;-84
2021/07/26 06:23:23;;;;;;;7.47;4.40;;;;;;;28.64;41.62;101233.13;128435;1084;64179;-83
2021/07/26 06:25:49;;;;;;;10.57;4.83;;;;;;;28.65;41.97;101240.31;128441;1083;64144;-83
2021/07/26 06:28:19;;;;;;;8.17;4.63;;;;;;;28.66;41.73;101242.88;128460;1084;64826;-84
2021/07/26 06:30:45;;;;;;;9.00;4.40;;;;;;;28.67;41.88;101232.89;128530;1084;64272;-83
2021/07/26 06:33:11;;;;;;;8.20;4.43;;;;;;;28.67;41.56;101235.61;128487;1083;64233;-83
2021/07/26 06:35:40;;;;;;;11.83;5.00;;;;;;;28.68;41.45;101235.45;128458;1084;64205;-82
2021/07/26 06:38:07;;;;;;;9.33;4.57;;;;;;;28.68;41.68;101230.02;128462;1082;64699;-84
2021/07/26 06:40:33;;;;;;;8.33;4.47;;;;;;;28.68;41.63;101232.73;128444;1084;64170;-84
2021/07/26 06:43:08;;;;;;;8.70;4.73;;;;;;;28.69;41.44;101231.70;128396;1083;64043;-85
2021/07/26 06:45:38;;;;;;;12.47;5.03;;;;;;;28.68;41.38;101227.30;128401;1083;64132;-84
2021/07/26 06:48:06;;;;;;;11.50;4.40;;;;;;;28.69;41.45;101234.42;128327;1084;64105;-84
2021/07/26 06:50:55;;;;;;;8.10;5.07;;;;;;;28.69;41.12;101228.14;128392;1084;64140;-84
2021/07/26 06:53:22;;;;;;;7.90;4.83;;;;;;;28.69;41.07;101230.86;128313;1085;64253;-83
2021/07/26 06:56:09;;;;;;;9.93;5.10;;;;;;;28.68;41.19;101232.73;127650;1089;64112;-84
2021/07/26 06:58:36;;;;;;;14.30;5.60;;;;;;;28.68;41.44;101226.42;127739;1089;64252;-85
2021/07/26 07:01:06;;;;;;;10.47;5.23;;;;;;;28.69;41.15;101231.70;127947;1089;64600;-84
2021/07/26 07:03:41;;;;;;;11.07;5.30;;;;;;;28.69;41.22;101228.98;127713;1090;64266;-85
2021/07/26 07:06:09;;;;;;;10.50;5.50;;;;;;;28.70;41.18;101225.27;127734;1089;64217;-84
2021/07/26 07:08:37;;;;;;;9.80;5.27;;;;;;;28.70;41.00;101233.42;127941;1090;64693;-84
2021/07/26 07:11:07;;;;;;;12.77;5.30;;;;;;;28.71;41.08;101237.85;127877;1090;64291;-85
2021/07/26 07:13:34;;;;;;;9.97;5.17;;;;;;;28.72;41.12;101233.27;127886;1090;64170;-85
2021/07/26 07:16:01;;;;;;;13.40;5.43;;;;;;;28.71;41.03;101229.70;127831;1090;64280;-85
2021/07/26 07:18:27;;;;;;;15.23;5.03;;;;;;;28.71;41.03;101237.02;127745;1090;64734;-82
2021/07/26 07:20:54;;;;;;;7.70;5.03;;;;;;;28.71;41.10;101237.85;127583;1090;64121;-82
2021/07/26 07:23:20;;;;;;;9.35;4.80;;;;;;;28.72;41.03;101236.86;127871;1089;64156;-82
2021/07/26 07:25:47;;;;;;;9.57;4.70;;;;;;;28.73;40.73;101246.73;127890;1089;64197;-82
2021/07/26 07:28:13;;;;;;;7.90;4.10;;;;;;;28.73;41.13;101241.30;127854;1089;64111;-83
2021/07/26 07:30:39;;;;;;;8.90;4.30;;;;;;;28.75;41.30;101241.14;127985;1087;64243;-82
2021/07/26 07:33:06;;;;;;;8.13;3.90;;;;;;;28.77;41.18;101247.26;127910;1084;64335;-84
2021/07/26 07:35:34;;;;;;;7.20;4.10;;;;;;;28.78;41.30;101243.55;128320;1084;64144;-84
2021/07/26 07:38:00;;;;;;;;;;;;;;;28.78;41.71;101248.98;128355;1084;64105;-83
2021/07/26 07:40:30;;;;;;;9.33;4.30;;;;;;;28.80;41.66;101248.83;128397;1082;64081;-85
2021/07/26 07:42:59;;;;;;;9.37;4.57;;;;;;;28.80;41.74;101255.13;128408;1082;62321;-85
2021/07/26 07:45:25;;;;;;;7.27;4.53;;;;;;;28.83;41.42;101259.38;128410;1084;64120;-85
2021/07/26 07:47:55;;;;;;;7.00;4.43;;;;;;;28.83;41.89;101260.25;128361;1084;64140;-85
2021/07/26 07:50:22;;;;;;;7.43;4.30;;;;;;;28.84;41.79;101263.81;128437;1084;63971;-85
2021/07/26 07:52:50;;;;;;;8.57;4.70;;;;;;;28.84;41.35;101252.95;128391;1084;64770;-86
2021/07/26 07:55:17;;;;;;;10.90;4.70;;;;;;;28.83;41.58;101252.11;128301;1084;64289;-85
2021/07/26 07:57:48;;;;;;;8.93;4.57;;;;;;;28.83;41.48;101254.82;128340;1083;64144;-84
2021/07/26 08:00:24;;;;;;;7.07;4.30;;;;;;;28.82;41.09;101253.10;128253;1082;64123;-84
2021/07/26 08:02:50;;;;;;;5.80;4.13;;;;;;;28.82;41.00;101253.10;128231;1083;64179;-83
2021/07/26 08:05:17;;;;;;;7.40;3.90;;;;;;;28.82;41.38;101250.38;128277;1084;64161;-83
2021/07/26 08:07:43;;;;;;;8.47;4.33;;;;;;;28.82;41.10;101247.67;128310;1084;64127;-83
2021/07/26 08:10:12;;;;;;;9.20;4.25;;;;;;;28.83;40.87;101253.95;128393;1084;63939;-84
2021/07/26 08:12:43;;;;;;;8.80;4.20;;;;;;;28.81;40.69;101256.81;128260;1084;64135;-85
2021/07/26 08:15:10;;;;;;;13.20;4.00;;;;;;;28.83;40.53;101256.66;128337;1084;64288;-84
2021/07/26 08:17:40;;;;;;;8.10;4.03;;;;;;;28.83;40.51;101257.54;128303;1084;64236;-85
2021/07/26 08:20:08;;;;;;;8.67;4.17;;;;;;;28.83;40.83;101248.52;129202;1084;61904;-84
2021/07/26 08:22:35;;;;;;;9.98;4.33;;;;;;;28.84;40.32;101250.23;128301;1084;64099;-84
2021/07/26 08:25:01;;;;;;;7.07;3.93;;;;;;;28.84;40.33;101253.82;128259;1084;64128;-85
2021/07/26 08:27:30;;;;;;;8.00;4.10;;;;;;;28.84;40.43;101251.11;128360;1084;64266;-84
2021/07/26 08:29:57;;;;;;;10.17;3.90;;;;;;;28.85;40.27;101243.80;128318;1083;64179;-84
2021/07/26 08:32:23;;;;;;;11.73;4.20;;;;;;;28.85;40.14;101246.52;128248;1083;64340;-84
2021/07/26 08:34:50;;;;;;;6.33;4.07;;;;;;;28.85;40.46;101239.20;128294;1084;64137;-84
2021/07/26 08:37:28;;;;;;;8.60;4.57;;;;;;;28.87;40.03;101239.08;128241;1082;64111;-84
2021/07/26 08:39:54;;;;;;;9.13;3.68;;;;;;;28.86;40.23;101242.80;128276;1084;64211;-84
2021/07/26 08:42:24;;;;;;;7.05;4.15;;;;;;;28.85;40.24;101244.64;128331;1084;64120;-84
2021/07/26 08:44:50;;;;;;;8.87;4.10;;;;;;;28.86;40.00;101246.36;128347;1084;64273;-84
2021/07/26 08:47:16;;;;;;;9.03;4.27;;;;;;;28.87;40.12;101239.08;128382;1083;64099;-84
2021/07/26 08:49:43;;;;;;;6.00;3.77;;;;;;;28.86;40.08;101250.95;128217;1083;64243;-84
2021/07/26 08:52:11;;;;;;;8.13;3.73;;;;;;;28.86;40.09;101237.36;128313;1082;64088;-85
2021/07/26 08:54:42;;;;;;;6.37;4.00;;;;;;;28.86;40.04;101242.80;128286;1084;63060;-84
2021/07/26 08:57:11;;;;;;;6.07;3.80;;;;;;;28.87;39.74;101244.52;128365;1083;64118;-85
2021/07/26 08:59:38;;;;;;;8.13;3.80;;;;;;;28.87;39.64;101234.49;128344;1084;64214;-84
2021/07/26 09:02:04;;;;;;;6.13;3.60;;;;;;;28.87;39.73;101247.23;128313;1082;64345;-85
2021/07/26 09:04:39;;;;;;;6.00;3.70;;;;;;;28.87;39.73;101244.52;128397;1084;62298;-85
2021/07/26 09:07:06;;;;;;;7.40;3.67;;;;;;;28.87;39.64;101228.22;128370;1084;64139;-86
2021/07/26 09:09:44;;;;;;;6.83;3.80;;;;;;;28.87;39.92;101229.05;128339;1084;64137;-85
2021/07/26 09:12:12;;;;;;;9.03;4.27;;;;;;;28.86;39.75;101227.34;128384;1084;64179;-85
2021/07/26 09:14:39;;;;;;;5.43;3.90;;;;;;;28.87;39.77;101230.93;128272;1084;64141;-85
2021/07/26 09:17:09;;;;;;;7.93;4.13;;;;;;;28.86;39.43;101229.22;128368;1084;64246;-85
2021/07/26 09:19:57;;;;;;;;;;;;;;;28.85;39.73;101225.63;128391;1082;64134;-86
2021/07/26 09:22:32;;;;;;;8.00;3.80;;;;;;;28.84;39.53;101229.37;128385;1084;64205;-85
2021/07/26 09:25:29;;;;;;;7.77;3.87;;;;;;;28.84;39.55;101232.09;128381;1083;64341;-85
2021/07/26 09:28:10;;;;;;;7.53;3.87;;;;;;;28.85;39.52;101241.08;128353;1083;64256;-84
2021/07/26 09:30:44;;;;;;;7.63;3.97;;;;;;;28.84;39.62;101221.22;128328;1084;64223;-85
2021/07/26 09:33:17;;;;;;;6.27;3.60;;;;;;;28.85;39.32;101227.49;128325;1084;64130;-85
2021/07/26 09:35:45;;;;;;;10.60;3.97;;;;;;;28.84;39.63;101228.49;128365;1084;64101;-85
2021/07/26 09:38:16;;;;;;;5.60;3.80;;;;;;;28.85;39.53;101224.78;128327;1084;64282;-85
2021/07/26 09:40:45;;;;;;;5.83;3.70;;;;;;;28.84;39.33;101229.37;128305;1084;64149;-85
2021/07/26 09:43:20;;;;;;;5.60;3.53;;;;;;;28.85;39.04;101231.05;128330;1082;64203;-84
2021/07/26 09:45:52;;;;;;;7.40;3.83;;;;;;;28.85;39.03;101228.34;128453;1084;64214;-85
2021/07/26 09:48:18;;;;;;;6.90;3.50;;;;;;;28.85;39.40;101222.91;128351;1083;64124;-86
2021/07/26 09:50:49;;;;;;;8.30;3.83;;;;;;;28.85;39.34;101220.19;128285;1081;64229;-85
2021/07/26 09:53:16;;;;;;;5.77;3.50;;;;;;;28.85;39.23;101225.63;128368;1082;64021;-85
2021/07/26 09:55:53;;;;;;;5.90;3.53;;;;;;;28.86;39.04;101223.78;128332;1083;64120;-86
2021/07/26 09:58:40;;;;;;;5.97;3.50;;;;;;;28.85;38.93;101222.06;128411;1084;64263;-86
2021/07/26 10:01:12;;;;;;;5.97;3.43;;;;;;;28.85;39.33;101220.19;128645;1084;61873;-83
2021/07/26 10:03:39;;;;;;;5.37;3.37;;;;;;;28.86;38.85;101208.31;128260;1084;64186;-83
2021/07/26 10:06:08;;;;;;;7.03;3.50;;;;;;;28.86;38.74;101210.19;128279;1084;64140;-85
2021/07/26 10:08:37;;;;;;;7.00;3.77;;;;;;;28.86;38.70;101202.88;128281;1084;65417;-85
2021/07/26 10:11:08;;;;;;;5.70;3.70;;;;;;;28.86;38.98;101197.45;128287;1084;64138;-85
2021/07/26 10:13:43;;;;;;;6.90;3.43;;;;;;;28.86;38.47;101196.61;128285;1084;64391;-85
2021/07/26 10:16:13;;;;;;;6.90;3.60;;;;;;;28.87;38.70;101195.61;128306;1082;64192;-85
2021/07/26 10:18:58;;;;;;;4.87;3.00;;;;;;;28.86;39.05;101200.17;128326;1084;64220;-83
2021/07/26 10:21:25;;;;;;;5.37;3.40;;;;;;;28.87;38.70;101190.17;128374;1082;64246;-84
2021/07/26 10:24:00;;;;;;;6.63;3.73;;;;;;;28.87;38.52;101184.73;128440;1083;64231;-84
2021/07/26 10:26:41;;;;;;;5.47;3.93;;;;;;;28.87;38.69;101185.58;128496;1083;64175;-83
2021/07/26 10:29:08;;;;;;;6.93;3.47;;;;;;;28.88;38.48;101189.14;128457;1084;64304;-83
2021/07/26 10:31:35;;;;;;;6.33;3.40;;;;;;;28.88;38.49;101180.98;128411;1082;64262;-83
2021/07/26 10:34:21;;;;;;;6.07;3.77;;;;;;;28.87;38.64;101172.00;128290;1084;64121;-84
2021/07/26 10:36:57;;;;;;;4.40;3.10;;;;;;;28.89;38.51;101177.27;128276;1084;64223;-83
2021/07/26 10:39:28;;;;;;;6.70;3.60;;;;;;;28.89;38.54;101174.55;128564;1084;64119;-84
2021/07/26 10:42:18;;;;;;;4.47;3.20;;;;;;;28.89;38.24;101174.55;128398;1084;64128;-85
2021/07/26 10:45:02;;;;;;;5.83;3.53;;;;;;;28.88;38.46;101171.00;127957;1087;64365;-86
2021/07/26 10:47:40;;;;;;;6.20;3.30;;;;;;;28.89;38.37;101179.98;128056;1087;64148;-85
2021/07/26 10:50:14;;;;;;;6.87;3.50;;;;;;;28.89;38.66;101169.13;127994;1087;64198;-87
2021/07/26 10:52:46;;;;;;;8.20;3.57;;;;;;;28.88;38.29;101172.84;128311;1087;63946;-87
2021/07/26 10:55:52;;;;;;;5.50;3.57;;;;;;;28.89;38.47;101171.84;128003;1087;64144;-85
2021/07/26 10:58:59;;;;;;;6.20;3.60;;;;;;;28.87;38.29;101166.56;128303;1087;64151;-86
2021/07/26 11:01:32;;;;;;;8.50;4.10;;;;;;;28.87;38.57;101169.28;128079;1086;64149;-85
2021/07/26 11:03:58;;;;;;;6.97;4.37;;;;;;;28.87;38.43;101166.56;128232;1086;64172;-83
2021/07/26 11:06:37;;;;;;;7.67;4.40;;;;;;;28.87;38.48;101169.28;127902;1087;64211;-84
2021/07/26 11:09:20;;;;;;;;;;;;;;;28.87;38.59;101163.00;128580;1086;62325;-84
2021/07/26 11:11:51;;;;;;;6.20;4.03;;;;;;;28.86;38.37;101159.41;128190;1086;64100;-83
2021/07/26 11:14:18;;;;;;;6.67;4.40;;;;;;;28.87;38.53;101161.13;127951;1087;64115;-86
2021/07/26 11:17:11;;;;;;;7.63;4.93;;;;;;;28.87;38.44;101160.28;127997;1087;64134;-85
2021/07/26 11:19:44;;;;;;;6.57;4.53;;;;;;;28.87;38.65;101155.69;127999;1087;64137;-86
2021/07/26 11:22:36;;;;;;;6.27;4.30;;;;;;;28.88;38.12;101160.13;128345;1084;64138;-86
2021/07/26 11:25:06;;;;;;;8.17;4.50;;;;;;;28.87;38.58;101160.28;128378;1084;64594;-83
2021/07/26 11:27:41;;;;;;;6.50;4.37;;;;;;;28.87;38.64;101163.84;128395;1083;64152;-86
2021/07/26 11:30:16;;;;;;;7.37;4.93;;;;;;;28.88;38.73;101159.25;128430;1084;64154;-85
2021/07/26 11:32:44;;;;;;;8.03;4.50;;;;;;;28.87;38.34;101163.00;128404;1084;64284;-86
2021/07/26 11:35:10;;;;;;;6.70;4.50;;;;;;;28.87;38.37;101161.13;128405;1084;64452;-84
2021/07/26 11:37:42;;;;;;;7.50;4.40;;;;;;;28.87;38.33;101157.56;128406;1084;64108;-85
2021/07/26 11:40:13;;;;;;;7.70;4.37;;;;;;;28.87;38.08;101160.28;128416;1083;64487;-86
2021/07/26 11:42:48;;;;;;;6.37;4.07;;;;;;;28.87;38.48;101157.56;128377;1082;64157;-85
2021/07/26 11:45:15;;;;;;;6.80;4.30;;;;;;;28.86;38.63;101148.55;128447;1084;64172;-86